sensor_id;sensor_type;location;lat;lon;timestamp;pressure;altitude;pressure_sealevel;temperature;humidity
59103;BME280;43999;51.660;5.616;2023-04-01T00:01:15;98898.72;;;8.57;100.00
59103;BME280;43999;51.660;5.616;2023-04-01T00:03:44;98905.72;;;8.57;100.00
59103;BME280;43999;51.660;5.616;2023-04-01T00:06:17;98909.97;;;8.58;100.00
59103;BME280;43999;51.660;5.616;2023-04-01T00:08:45;98903.81;;;8.59;100.00
59103;BME280;43999;51.660;5.616;2023-04-01T00:11:14;98905.84;;;8.55;100.00
59103;BME280;43999;51.660;5.616;2023-04-01T00:13:47;98912.59;;;8.58;100.00
59103;BME280;43999;51.660;5.616;2023-04-01T00:16:15;98908.34;;;8.57;100.00
59103;BME280;43999;51.660;5.616;2023-04-01T00:18:47;98910.84;;;8.58;100.00
59103;BME280;43999;51.660;5.616;2023-04-01T00:21:16;98917.81;;;8.58;100.00
59103;BME280;43999;51.660;5.616;2023-04-01T00:23:45;98915.94;;;8.60;100.00
59103;BME280;43999;51.660;5.616;2023-04-01T00:26:13;98918.66;;;8.58;100.00
59103;BME280;43999;51.660;5.616;2023-04-01T00:28:41;98921.84;;;8.62;100.00
59103;BME280;43999;51.660;5.616;2023-04-01T00:31:10;98907.13;;;8.61;100.00
59103;BME280;43999;51.660;5.616;2023-04-01T00:33:39;98916.88;;;8.59;100.00
59103;BME280;43999;51.660;5.616;2023-04-01T00:38:58;98917.69;;;8.59;100.00
59103;BME280;43999;51.660;5.616;2023-04-01T00:41:28;98913.44;;;8.58;100.00
59103;BME280;43999;51.660;5.616;2023-04-01T00:44:22;98920.41;;;8.58;100.00
59103;BME280;43999;51.660;5.616;2023-04-01T00:46:52;98932.66;;;8.57;100.00
59103;BME280;43999;51.660;5.616;2023-04-01T00:49:25;98916.16;;;8.57;100.00
59103;BME280;43999;51.660;5.616;2023-04-01T00:51:59;98927.31;;;8.59;100.00
59103;BME280;43999;51.660;5.616;2023-04-01T00:54:31;98930.88;;;8.58;100.00
59103;BME280;43999;51.660;5.616;2023-04-01T00:59:54;98930.63;;;8.61;100.00
59103;BME280;43999;51.660;5.616;2023-04-01T01:02:23;98929.00;;;8.60;100.00
59103;BME280;43999;51.660;5.616;2023-04-01T01:04:52;98935.84;;;8.61;100.00
59103;BME280;43999;51.660;5.616;2023-04-01T01:10:49;98941.06;;;8.61;100.00
59103;BME280;43999;51.660;5.616;2023-04-01T01:13:44;98943.69;;;8.61;100.00
59103;BME280;43999;51.660;5.616;2023-04-01T01:16:38;98944.41;;;8.63;100.00
59103;BME280;43999;51.660;5.616;2023-04-01T01:23:23;98950.47;;;8.64;100.00
59103;BME280;43999;51.660;5.616;2023-04-01T01:26:51;98940.84;;;8.64;100.00
59103;BME280;43999;51.660;5.616;2023-04-01T01:33:01;98948.78;;;8.63;100.00
59103;BME280;43999;51.660;5.616;2023-04-01T01:35:56;98951.28;;;8.64;100.00
59103;BME280;43999;51.660;5.616;2023-04-01T01:38:30;98954.75;;;8.65;100.00
59103;BME280;43999;51.660;5.616;2023-04-01T01:41:04;98965.19;;;8.65;100.00
59103;BME280;43999;51.660;5.616;2023-04-01T01:43:44;98954.97;;;8.61;100.00
59103;BME280;43999;51.660;5.616;2023-04-01T01:46:19;98961.72;;;8.64;100.00
59103;BME280;43999;51.660;5.616;2023-04-01T01:48:51;98962.56;;;8.65;100.00
59103;BME280;43999;51.660;5.616;2023-04-01T01:51:22;98966.13;;;8.64;100.00
59103;BME280;43999;51.660;5.616;2023-04-01T01:53:50;98968.72;;;8.64;100.00
59103;BME280;43999;51.660;5.616;2023-04-01T01:56:22;98963.41;;;8.65;100.00
59103;BME280;43999;51.660;5.616;2023-04-01T01:59:03;98968.63;;;8.65;100.00
59103;BME280;43999;51.660;5.616;2023-04-01T02:01:43;98967.06;;;8.63;100.00
59103;BME280;43999;51.660;5.616;2023-04-01T02:04:16;98969.69;;;8.63;100.00
59103;BME280;43999;51.660;5.616;2023-04-01T02:06:58;98977.50;;;8.63;100.00
59103;BME280;43999;51.660;5.616;2023-04-01T02:09:30;98974.78;;;8.64;100.00
59103;BME280;43999;51.660;5.616;2023-04-01T02:12:03;98979.06;;;8.65;100.00
59103;BME280;43999;51.660;5.616;2023-04-01T02:17:43;98985.56;;;8.59;100.00
59103;BME280;43999;51.660;5.616;2023-04-01T02:20:24;98989.84;;;8.60;100.00
59103;BME280;43999;51.660;5.616;2023-04-01T02:22:54;98987.59;;;8.56;100.00
59103;BME280;43999;51.660;5.616;2023-04-01T02:25:35;98985.56;;;8.59;100.00
59103;BME280;43999;51.660;5.616;2023-04-01T02:28:06;98988.19;;;8.59;100.00
59103;BME280;43999;51.660;5.616;2023-04-01T02:30:40;98990.91;;;8.58;100.00
59103;BME280;43999;51.660;5.616;2023-04-01T02:33:10;98995.53;;;8.54;100.00
59103;BME280;43999;51.660;5.616;2023-04-01T02:35:38;98997.22;;;8.55;100.00
59103;BME280;43999;51.660;5.616;2023-04-01T02:38:08;98997.22;;;8.55;100.00
59103;BME280;43999;51.660;5.616;2023-04-01T02:40:55;99000.63;;;8.56;100.00
59103;BME280;43999;51.660;5.616;2023-04-01T02:43:25;98992.81;;;8.56;100.00
59103;BME280;43999;51.660;5.616;2023-04-01T02:45:53;98996.59;;;8.52;100.00
59103;BME280;43999;51.660;5.616;2023-04-01T02:48:21;99003.47;;;8.53;100.00
59103;BME280;43999;51.660;5.616;2023-04-01T02:50:48;99004.53;;;8.50;100.00
59103;BME280;43999;51.660;5.616;2023-04-01T02:53:17;99003.00;;;8.48;100.00
59103;BME280;43999;51.660;5.616;2023-04-01T02:55:47;99004.75;;;8.47;100.00
59103;BME280;43999;51.660;5.616;2023-04-01T02:58:17;99009.28;;;8.45;100.00
59103;BME280;43999;51.660;5.616;2023-04-01T03:00:45;99002.47;;;8.42;100.00
59103;BME280;43999;51.660;5.616;2023-04-01T03:03:13;99013.97;;;8.40;100.00
59103;BME280;43999;51.660;5.616;2023-04-01T03:05:41;99006.16;;;8.40;100.00
59103;BME280;43999;51.660;5.616;2023-04-01T03:08:09;99013.13;;;8.39;100.00
59103;BME280;43999;51.660;5.616;2023-04-01T03:10:37;99017.75;;;8.36;100.00
59103;BME280;43999;51.660;5.616;2023-04-01T03:13:04;99022.75;;;8.39;100.00
59103;BME280;43999;51.660;5.616;2023-04-01T03:15:35;99029.75;;;8.38;100.00
59103;BME280;43999;51.660;5.616;2023-04-01T03:18:02;99022.25;;;8.34;100.00
59103;BME280;43999;51.660;5.616;2023-04-01T03:20:30;99018.56;;;8.36;100.00
59103;BME280;43999;51.660;5.616;2023-04-01T03:22:58;99022.97;;;8.36;100.00
59103;BME280;43999;51.660;5.616;2023-04-01T03:25:26;99026.50;;;8.35;100.00
59103;BME280;43999;51.660;5.616;2023-04-01T03:27:55;99030.91;;;8.34;100.00
59103;BME280;43999;51.660;5.616;2023-04-01T03:30:28;99025.69;;;8.34;100.00
59103;BME280;43999;51.660;5.616;2023-04-01T03:32:58;99024.75;;;8.35;100.00
59103;BME280;43999;51.660;5.616;2023-04-01T03:35:27;99029.00;;;8.36;100.00
59103;BME280;43999;51.660;5.616;2023-04-01T03:37:55;99033.41;;;8.36;100.00
59103;BME280;43999;51.660;5.616;2023-04-01T03:40:24;99029.00;;;8.36;100.00
59103;BME280;43999;51.660;5.616;2023-04-01T03:42:54;99036.72;;;8.38;100.00
59103;BME280;43999;51.660;5.616;2023-04-01T03:45:23;99032.38;;;8.38;100.00
59103;BME280;43999;51.660;5.616;2023-04-01T03:47:50;99025.59;;;8.36;100.00
59103;BME280;43999;51.660;5.616;2023-04-01T03:50:20;99034.22;;;8.36;100.00
59103;BME280;43999;51.660;5.616;2023-04-01T03:52:47;99038.63;;;8.36;100.00
59103;BME280;43999;51.660;5.616;2023-04-01T03:55:15;99036.84;;;8.36;100.00
59103;BME280;43999;51.660;5.616;2023-04-01T03:57:43;99032.69;;;8.34;100.00
59103;BME280;43999;51.660;5.616;2023-04-01T04:00:18;99034.47;;;8.33;100.00
59103;BME280;43999;51.660;5.616;2023-04-01T04:02:50;99047.50;;;8.33;100.00
59103;BME280;43999;51.660;5.616;2023-04-01T04:05:25;99042.41;;;8.32;100.00
59103;BME280;43999;51.660;5.616;2023-04-01T04:07:54;99044.41;;;8.28;100.00
59103;BME280;43999;51.660;5.616;2023-04-01T04:10:24;99053.06;;;8.29;100.00
59103;BME280;43999;51.660;5.616;2023-04-01T04:12:53;99054.13;;;8.26;100.00
59103;BME280;43999;51.660;5.616;2023-04-01T04:15:22;99054.47;;;8.21;100.00
59103;BME280;43999;51.660;5.616;2023-04-01T04:17:50;99058.13;;;8.19;100.00
59103;BME280;43999;51.660;5.616;2023-04-01T04:20:18;99054.69;;;8.18;100.00
59103;BME280;43999;51.660;5.616;2023-04-01T04:22:45;99063.56;;;8.16;100.00
59103;BME280;43999;51.660;5.616;2023-04-01T04:25:15;99064.50;;;8.15;100.00
59103;BME280;43999;51.660;5.616;2023-04-01T04:27:43;99060.34;;;8.12;100.00
59103;BME280;43999;51.660;5.616;2023-04-01T04:30:13;99070.69;;;8.14;100.00
59103;BME280;43999;51.660;5.616;2023-04-01T04:32:40;99069.00;;;8.13;100.00
59103;BME280;43999;51.660;5.616;2023-04-01T04:35:12;99080.25;;;8.13;100.00
59103;BME280;43999;51.660;5.616;2023-04-01T04:37:41;99073.41;;;8.12;100.00
59103;BME280;43999;51.660;5.616;2023-04-01T04:40:08;99075.38;;;8.08;100.00
59103;BME280;43999;51.660;5.616;2023-04-01T04:42:36;99078.09;;;8.07;100.00
59103;BME280;43999;51.660;5.616;2023-04-01T04:45:14;99078.94;;;8.07;100.00
59103;BME280;43999;51.660;5.616;2023-04-01T04:47:51;99077.38;;;8.05;100.00
59103;BME280;43999;51.660;5.616;2023-04-01T04:50:18;99073.94;;;8.04;100.00
59103;BME280;43999;51.660;5.616;2023-04-01T04:52:47;99081.13;;;8.01;100.00
59103;BME280;43999;51.660;5.616;2023-04-01T04:55:15;99076.88;;;8.00;100.00
59103;BME280;43999;51.660;5.616;2023-04-01T04:57:45;99082.94;;;8.00;100.00
59103;BME280;43999;51.660;5.616;2023-04-01T05:00:14;99097.66;;;8.01;100.00
59103;BME280;43999;51.660;5.616;2023-04-01T05:02:48;99092.53;;;8.00;100.00
59103;BME280;43999;51.660;5.616;2023-04-01T05:05:17;99101.06;;;8.02;100.00
59103;BME280;43999;51.660;5.616;2023-04-01T05:07:46;99097.53;;;8.03;100.00
59103;BME280;43999;51.660;5.616;2023-04-01T05:10:13;99102.75;;;8.03;100.00
59103;BME280;43999;51.660;5.616;2023-04-01T05:12:40;99103.78;;;8.00;100.00
59103;BME280;43999;51.660;5.616;2023-04-01T05:15:10;99111.50;;;8.02;100.00
59103;BME280;43999;51.660;5.616;2023-04-01T05:17:39;99118.50;;;8.01;100.00
59103;BME280;43999;51.660;5.616;2023-04-01T05:20:14;99120.25;;;8.01;100.00
59103;BME280;43999;51.660;5.616;2023-04-01T05:22:44;99127.97;;;8.02;100.00
59103;BME280;43999;51.660;5.616;2023-04-01T05:25:13;99120.16;;;8.02;100.00
59103;BME280;43999;51.660;5.616;2023-04-01T05:27:41;99128.84;;;8.03;100.00
59103;BME280;43999;51.660;5.616;2023-04-01T05:30:09;99136.66;;;8.03;100.00
59103;BME280;43999;51.660;5.616;2023-04-01T05:32:46;99134.06;;;8.03;100.00
59103;BME280;43999;51.660;5.616;2023-04-01T05:35:13;99132.38;;;8.02;100.00
59103;BME280;43999;51.660;5.616;2023-04-01T05:37:40;99141.03;;;8.02;100.00
59103;BME280;43999;51.660;5.616;2023-04-01T05:40:12;99144.28;;;8.06;100.00
59103;BME280;43999;51.660;5.616;2023-04-01T05:42:46;99139.66;;;8.10;100.00
59103;BME280;43999;51.660;5.616;2023-04-01T05:45:15;99155.31;;;8.10;100.00
59103;BME280;43999;51.660;5.616;2023-04-01T05:47:49;99154.38;;;8.11;100.00
59103;BME280;43999;51.660;5.616;2023-04-01T05:50:17;99158.63;;;8.12;100.00
59103;BME280;43999;51.660;5.616;2023-04-01T05:52:45;99160.31;;;8.13;100.00
59103;BME280;43999;51.660;5.616;2023-04-01T05:55:15;99169.72;;;8.15;100.00
59103;BME280;43999;51.660;5.616;2023-04-01T05:57:46;99166.13;;;8.16;100.00
59103;BME280;43999;51.660;5.616;2023-04-01T06:00:16;99171.34;;;8.16;100.00
59103;BME280;43999;51.660;5.616;2023-04-01T06:02:45;99178.97;;;8.19;100.00
59103;BME280;43999;51.660;5.616;2023-04-01T06:05:24;99170.31;;;8.19;100.00
59103;BME280;43999;51.660;5.616;2023-04-01T06:07:59;99179.81;;;8.20;100.00
59103;BME280;43999;51.660;5.616;2023-04-01T06:11:17;99195.25;;;8.23;100.00
59103;BME280;43999;51.660;5.616;2023-04-01T06:27:03;99210.06;;;8.35;100.00
59103;BME280;43999;51.660;5.616;2023-04-01T06:30:32;99226.44;;;8.37;100.00
59103;BME280;43999;51.660;5.616;2023-04-01T06:33:48;99228.94;;;8.39;100.00
59103;BME280;43999;51.660;5.616;2023-04-01T06:47:03;99232.38;;;8.52;100.00
59103;BME280;43999;51.660;5.616;2023-04-01T06:54:16;99246.66;;;8.59;100.00
59103;BME280;43999;51.660;5.616;2023-04-01T06:57:40;99256.06;;;8.62;100.00
59103;BME280;43999;51.660;5.616;2023-04-01T07:00:20;99256.88;;;8.63;100.00
59103;BME280;43999;51.660;5.616;2023-04-01T07:03:19;99263.66;;;8.65;100.00
59103;BME280;43999;51.660;5.616;2023-04-01T07:05:52;99263.78;;;8.64;100.00
59103;BME280;43999;51.660;5.616;2023-04-01T07:08:26;99267.09;;;8.66;100.00
59103;BME280;43999;51.660;5.616;2023-04-01T07:10:58;99258.44;;;8.65;100.00
59103;BME280;43999;51.660;5.616;2023-04-01T07:13:55;99273.41;;;8.63;100.00
59103;BME280;43999;51.660;5.616;2023-04-01T07:16:46;99278.50;;;8.65;100.00
59103;BME280;43999;51.660;5.616;2023-04-01T07:22:38;99281.13;;;8.65;100.00
59103;BME280;43999;51.660;5.616;2023-04-01T07:25:27;99295.72;;;8.67;100.00
59103;BME280;43999;51.660;5.616;2023-04-01T07:28:17;99300.22;;;8.65;100.00
59103;BME280;43999;51.660;5.616;2023-04-01T07:41:11;99317.34;;;8.69;100.00
59103;BME280;43999;51.660;5.616;2023-04-01T07:44:04;99311.91;;;8.72;100.00
59103;BME280;43999;51.660;5.616;2023-04-01T07:50:38;99325.59;;;8.76;100.00
59103;BME280;43999;51.660;5.616;2023-04-01T07:53:42;99333.91;;;8.81;100.00
59103;BME280;43999;51.660;5.616;2023-04-01T08:00:19;99333.00;;;8.82;100.00
59103;BME280;43999;51.660;5.616;2023-04-01T08:07:11;99345.94;;;8.84;100.00
59103;BME280;43999;51.660;5.616;2023-04-01T08:20:57;99366.53;;;8.75;100.00
59103;BME280;43999;51.660;5.616;2023-04-01T08:23:43;99377.09;;;8.74;100.00
59103;BME280;43999;51.660;5.616;2023-04-01T08:26:39;99376.25;;;8.73;100.00
59103;BME280;43999;51.660;5.616;2023-04-01T08:29:31;99377.22;;;8.72;100.00
59103;BME280;43999;51.660;5.616;2023-04-01T08:32:34;99385.56;;;8.77;100.00
59103;BME280;43999;51.660;5.616;2023-04-01T08:35:30;99382.81;;;8.79;100.00
59103;BME280;43999;51.660;5.616;2023-04-01T08:38:19;99394.97;;;8.80;100.00
59103;BME280;43999;51.660;5.616;2023-04-01T08:41:40;99397.56;;;8.80;100.00
59103;BME280;43999;51.660;5.616;2023-04-01T08:45:15;99398.41;;;8.81;100.00
59103;BME280;43999;51.660;5.616;2023-04-01T08:55:25;99419.38;;;8.92;100.00
59103;BME280;43999;51.660;5.616;2023-04-01T09:08:58;99440.81;;;8.97;100.00
59103;BME280;43999;51.660;5.616;2023-04-01T09:11:59;99445.06;;;8.98;100.00
59103;BME280;43999;51.660;5.616;2023-04-01T09:15:17;99454.69;;;8.97;100.00
59103;BME280;43999;51.660;5.616;2023-04-01T09:21:36;99463.66;;;8.93;100.00
59103;BME280;43999;51.660;5.616;2023-04-01T09:35:20;99486.25;;;8.94;100.00
59103;BME280;43999;51.660;5.616;2023-04-01T09:38:20;99481.97;;;8.93;100.00
59103;BME280;43999;51.660;5.616;2023-04-01T09:41:32;99489.59;;;8.96;100.00
59103;BME280;43999;51.660;5.616;2023-04-01T09:44:36;99489.59;;;8.96;100.00
59103;BME280;43999;51.660;5.616;2023-04-01T09:48:24;99492.94;;;8.99;100.00
59103;BME280;43999;51.660;5.616;2023-04-01T09:51:27;99490.13;;;9.02;100.00
59103;BME280;43999;51.660;5.616;2023-04-01T09:54:28;99492.63;;;9.03;100.00
59103;BME280;43999;51.660;5.616;2023-04-01T10:01:56;99494.19;;;9.19;100.00
59103;BME280;43999;51.660;5.616;2023-04-01T10:15:40;99518.81;;;9.27;100.00
59103;BME280;43999;51.660;5.616;2023-04-01T10:37:34;99534.28;;;9.43;100.00
59103;BME280;43999;51.660;5.616;2023-04-01T10:56:55;99550.88;;;9.55;100.00
59103;BME280;43999;51.660;5.616;2023-04-01T11:00:15;99554.88;;;9.61;100.00
59103;BME280;43999;51.660;5.616;2023-04-01T11:16:09;99567.78;;;9.75;100.00
59103;BME280;43999;51.660;5.616;2023-04-01T11:43:06;99598.56;;;9.59;100.00
59103;BME280;43999;51.660;5.616;2023-04-01T11:53:41;99608.94;;;9.60;100.00
59103;BME280;43999;51.660;5.616;2023-04-01T12:00:10;99620.84;;;9.64;100.00
59103;BME280;43999;51.660;5.616;2023-04-01T12:13:06;99636.56;;;9.64;100.00
59103;BME280;43999;51.660;5.616;2023-04-01T12:35:12;99668.25;;;9.60;100.00
59103;BME280;43999;51.660;5.616;2023-04-01T12:37:59;99670.75;;;9.61;100.00
59103;BME280;43999;51.660;5.616;2023-04-01T12:50:40;99684.47;;;9.65;100.00
59103;BME280;43999;51.660;5.616;2023-04-01T12:57:39;99687.06;;;9.65;100.00
59103;BME280;43999;51.660;5.616;2023-04-01T13:21:44;99723.41;;;9.82;100.00
59103;BME280;43999;51.660;5.616;2023-04-01T13:29:06;99722.88;;;9.90;100.00
59103;BME280;43999;51.660;5.616;2023-04-01T13:32:12;99728.31;;;9.87;100.00
59103;BME280;43999;51.660;5.616;2023-04-01T13:36:07;99730.41;;;9.82;100.00
59103;BME280;43999;51.660;5.616;2023-04-01T13:42:30;99743.69;;;9.79;100.00
59103;BME280;43999;51.660;5.616;2023-04-01T13:45:26;99738.66;;;9.76;100.00
59103;BME280;43999;51.660;5.616;2023-04-01T13:51:16;99740.66;;;9.72;100.00
59103;BME280;43999;51.660;5.616;2023-04-01T13:54:29;99748.50;;;9.72;100.00
59103;BME280;43999;51.660;5.616;2023-04-01T14:16:14;99761.13;;;9.52;100.00
59103;BME280;43999;51.660;5.616;2023-04-01T14:26:07;99778.50;;;9.54;100.00
59103;BME280;43999;51.660;5.616;2023-04-01T14:45:44;99790.56;;;9.56;100.00
59103;BME280;43999;51.660;5.616;2023-04-01T14:51:23;99793.69;;;9.48;100.00
59103;BME280;43999;51.660;5.616;2023-04-01T14:54:19;99803.94;;;9.51;100.00
59103;BME280;43999;51.660;5.616;2023-04-01T15:00:14;99807.59;;;9.49;100.00
59103;BME280;43999;51.660;5.616;2023-04-01T15:06:13;99809.88;;;9.54;100.00
59103;BME280;43999;51.660;5.616;2023-04-01T15:29:32;99840.53;;;9.51;100.00
59103;BME280;43999;51.660;5.616;2023-04-01T15:36:25;99841.88;;;9.44;100.00
59103;BME280;43999;51.660;5.616;2023-04-01T15:46:52;99855.88;;;9.43;100.00
59103;BME280;43999;51.660;5.616;2023-04-01T15:49:42;99865.50;;;9.43;100.00
59103;BME280;43999;51.660;5.616;2023-04-01T15:52:59;99864.78;;;9.41;100.00
59103;BME280;43999;51.660;5.616;2023-04-01T15:59:14;99871.47;;;9.45;100.00
59103;BME280;43999;51.660;5.616;2023-04-01T16:05:51;99874.28;;;9.42;100.00
59103;BME280;43999;51.660;5.616;2023-04-01T16:11:40;99879.31;;;9.45;100.00
59103;BME280;43999;51.660;5.616;2023-04-01T16:14:38;99891.34;;;9.47;100.00
59103;BME280;43999;51.660;5.616;2023-04-01T16:20:56;99893.06;;;9.48;100.00
59103;BME280;43999;51.660;5.616;2023-04-01T16:23:57;99895.75;;;9.47;100.00
59103;BME280;43999;51.660;5.616;2023-04-01T16:26:54;99904.34;;;9.49;100.00
59103;BME280;43999;51.660;5.616;2023-04-01T16:30:00;99905.06;;;9.51;100.00
59103;BME280;43999;51.660;5.616;2023-04-01T16:32:57;99914.69;;;9.50;100.00
59103;BME280;43999;51.660;5.616;2023-04-01T16:35:58;99917.31;;;9.50;100.00
59103;BME280;43999;51.660;5.616;2023-04-01T16:38:53;99916.09;;;9.56;100.00
59103;BME280;43999;51.660;5.616;2023-04-01T16:42:38;99934.75;;;9.64;100.00
59103;BME280;43999;51.660;5.616;2023-04-01T16:52:16;99947.56;;;9.82;100.00
59103;BME280;43999;51.660;5.616;2023-04-01T16:56:02;99962.31;;;9.83;100.00
59103;BME280;43999;51.660;5.616;2023-04-01T17:04:40;99974.69;;;9.81;100.00
59103;BME280;43999;51.660;5.616;2023-04-01T17:08:14;99984.66;;;9.89;100.00
59103;BME280;43999;51.660;5.616;2023-04-01T17:13:47;100014.25;;;9.89;100.00
59103;BME280;43999;51.660;5.616;2023-04-01T17:16:51;100002.31;;;9.85;100.00
59103;BME280;43999;51.660;5.616;2023-04-01T17:28:52;100033.91;;;9.82;100.00
59103;BME280;43999;51.660;5.616;2023-04-01T17:32:40;100039.53;;;9.76;100.00
59103;BME280;43999;51.660;5.616;2023-04-01T17:35:58;100046.63;;;9.74;100.00
59103;BME280;43999;51.660;5.616;2023-04-01T17:42:11;100067.56;;;9.74;100.00
59103;BME280;43999;51.660;5.616;2023-04-01T17:47:59;100076.91;;;9.63;100.00
59103;BME280;43999;51.660;5.616;2023-04-01T18:01:03;100097.66;;;9.52;100.00
59103;BME280;43999;51.660;5.616;2023-04-01T18:10:19;100114.94;;;9.40;100.00
59103;BME280;43999;51.660;5.616;2023-04-01T18:13:14;100134.75;;;9.44;100.00
59103;BME280;43999;51.660;5.616;2023-04-01T18:19:30;100140.53;;;9.35;100.00
59103;BME280;43999;51.660;5.616;2023-04-01T18:22:19;100154.06;;;9.27;100.00
59103;BME280;43999;51.660;5.616;2023-04-01T18:25:02;100171.81;;;9.22;100.00
59103;BME280;43999;51.660;5.616;2023-04-01T18:27:52;100169.28;;;9.21;100.00
59103;BME280;43999;51.660;5.616;2023-04-01T18:30:58;100179.25;;;9.14;100.00
59103;BME280;43999;51.660;5.616;2023-04-01T18:36:50;100200.63;;;9.06;100.00
59103;BME280;43999;51.660;5.616;2023-04-01T18:39:52;100205.16;;;9.03;100.00
59103;BME280;43999;51.660;5.616;2023-04-01T18:42:57;100215.59;;;9.03;100.00
59103;BME280;43999;51.660;5.616;2023-04-01T18:57:51;100253.56;;;8.78;100.00
59103;BME280;43999;51.660;5.616;2023-04-01T19:00:46;100253.09;;;8.71;100.00
59103;BME280;43999;51.660;5.616;2023-04-01T19:03:57;100262.94;;;8.66;100.00
59103;BME280;43999;51.660;5.616;2023-04-01T19:06:53;100263.88;;;8.65;100.00
59103;BME280;43999;51.660;5.616;2023-04-01T19:09:49;100283.69;;;8.69;100.00
59103;BME280;43999;51.660;5.616;2023-04-01T19:18:35;100290.72;;;8.51;100.00
59103;BME280;43999;51.660;5.616;2023-04-01T19:24:57;100313.72;;;8.45;100.00
59103;BME280;43999;51.660;5.616;2023-04-01T19:27:52;100315.69;;;8.39;100.00
59103;BME280;43999;51.660;5.616;2023-04-01T19:30:42;100329.00;;;8.35;100.00
59103;BME280;43999;51.660;5.616;2023-04-01T19:36:53;100329.31;;;8.29;100.00
59103;BME280;43999;51.660;5.616;2023-04-01T19:39:48;100337.94;;;8.31;100.00
59103;BME280;43999;51.660;5.616;2023-04-01T19:48:59;100347.66;;;8.27;100.00
59103;BME280;43999;51.660;5.616;2023-04-01T19:52:11;100346.91;;;8.25;100.00
59103;BME280;43999;51.660;5.616;2023-04-01T20:00:59;100379.53;;;8.16;100.00
59103;BME280;43999;51.660;5.616;2023-04-01T20:03:51;100391.91;;;8.13;100.00
59103;BME280;43999;51.660;5.616;2023-04-01T20:06:32;100394.81;;;8.06;100.00
59103;BME280;43999;51.660;5.616;2023-04-01T20:14:53;100421.22;;;8.00;100.00
59103;BME280;43999;51.660;5.616;2023-04-01T20:17:41;100421.97;;;8.02;100.00
59103;BME280;43999;51.660;5.616;2023-04-01T20:25:23;100441.28;;;8.00;100.00
59103;BME280;43999;51.660;5.616;2023-04-01T20:43:07;100479.22;;;7.88;100.00
59103;BME280;43999;51.660;5.616;2023-04-01T20:46:18;100482.06;;;7.83;100.00
59103;BME280;43999;51.660;5.616;2023-04-01T21:05:31;100522.13;;;7.63;100.00
59103;BME280;43999;51.660;5.616;2023-04-01T21:22:00;100551.03;;;7.40;100.00
59103;BME280;43999;51.660;5.616;2023-04-01T21:28:46;100564.34;;;7.33;100.00
59103;BME280;43999;51.660;5.616;2023-04-01T21:38:09;100586.22;;;7.29;100.00
59103;BME280;43999;51.660;5.616;2023-04-01T21:43:52;100595.38;;;7.19;100.00
59103;BME280;43999;51.660;5.616;2023-04-01T21:54:07;100619.59;;;7.21;100.00
59103;BME280;43999;51.660;5.616;2023-04-01T22:00:13;100633.72;;;7.15;100.00
59103;BME280;43999;51.660;5.616;2023-04-01T22:06:18;100644.53;;;7.06;100.00
59103;BME280;43999;51.660;5.616;2023-04-01T22:09:21;100645.81;;;6.97;100.00
59103;BME280;43999;51.660;5.616;2023-04-01T22:12:15;100647.72;;;6.92;100.00
59103;BME280;43999;51.660;5.616;2023-04-01T22:18:00;100660.63;;;6.95;100.00
59103;BME280;43999;51.660;5.616;2023-04-01T22:30:21;100684.38;;;6.88;100.00
59103;BME280;43999;51.660;5.616;2023-04-01T22:35:49;100699.53;;;6.78;100.00
59103;BME280;43999;51.660;5.616;2023-04-01T22:42:32;100717.31;;;6.68;100.00
59103;BME280;43999;51.660;5.616;2023-04-01T22:48:51;100732.25;;;6.63;100.00
59103;BME280;43999;51.660;5.616;2023-04-01T22:52:39;100757.72;;;6.55;100.00
59103;BME280;43999;51.660;5.616;2023-04-01T22:55:22;100742.41;;;6.47;100.00
59103;BME280;43999;51.660;5.616;2023-04-01T22:58:00;100739.19;;;6.40;100.00
59103;BME280;43999;51.660;5.616;2023-04-01T23:00:43;100746.28;;;6.37;100.00
59103;BME280;43999;51.660;5.616;2023-04-01T23:03:32;100746.34;;;6.35;100.00
59103;BME280;43999;51.660;5.616;2023-04-01T23:06:04;100751.63;;;6.34;100.00
59103;BME280;43999;51.660;5.616;2023-04-01T23:12:03;100758.72;;;6.28;100.00
59103;BME280;43999;51.660;5.616;2023-04-01T23:15:00;100768.41;;;6.25;100.00
59103;BME280;43999;51.660;5.616;2023-04-01T23:17:52;100771.84;;;6.25;100.00
59103;BME280;43999;51.660;5.616;2023-04-01T23:23:44;100778.88;;;6.23;100.00
59103;BME280;43999;51.660;5.616;2023-04-01T23:26:39;100792.84;;;6.21;100.00
59103;BME280;43999;51.660;5.616;2023-04-01T23:29:16;100790.34;;;6.18;100.00
59103;BME280;43999;51.660;5.616;2023-04-01T23:32:13;100795.66;;;6.15;100.00
59103;BME280;43999;51.660;5.616;2023-04-01T23:34:55;100795.72;;;6.13;100.00
59103;BME280;43999;51.660;5.616;2023-04-01T23:37:25;100801.84;;;6.12;100.00
59103;BME280;43999;51.660;5.616;2023-04-01T23:39:58;100806.16;;;6.12;100.00
59103;BME280;43999;51.660;5.616;2023-04-01T23:42:32;100808.66;;;6.15;100.00
59103;BME280;43999;51.660;5.616;2023-04-01T23:45:18;100817.44;;;6.12;100.00
59103;BME280;43999;51.660;5.616;2023-04-01T23:47:48;100823.53;;;6.11;100.00
59103;BME280;43999;51.660;5.616;2023-04-01T23:50:25;100826.88;;;6.15;100.00
59103;BME280;43999;51.660;5.616;2023-04-01T23:53:05;100833.13;;;6.10;100.00
59103;BME280;43999;51.660;5.616;2023-04-01T23:55:43;100843.53;;;6.10;100.00
59103;BME280;43999;51.660;5.616;2023-04-01T23:58:23;100840.09;;;6.08;100.00
